sensor_id;sensor_type;location;lat;lon;timestamp;P1;durP1;ratioP1;P2;durP2;ratioP2
33644;SDS011;19986;48.190;16.366;2022-07-01T00:01:40;24.40;;;22.75;;
33644;SDS011;19986;48.190;16.366;2022-07-01T00:04:06;23.65;;;22.13;;
33644;SDS011;19986;48.190;16.366;2022-07-01T00:06:33;25.15;;;23.42;;
33644;SDS011;19986;48.190;16.366;2022-07-01T00:08:58;23.77;;;22.17;;
33644;SDS011;19986;48.190;16.366;2022-07-01T00:11:25;25.00;;;23.20;;
33644;SDS011;19986;48.190;16.366;2022-07-01T00:13:51;24.67;;;23.17;;
33644;SDS011;19986;48.190;16.366;2022-07-01T00:16:17;24.40;;;22.85;;
33644;SDS011;19986;48.190;16.366;2022-07-01T00:18:43;24.35;;;22.65;;
33644;SDS011;19986;48.190;16.366;2022-07-01T00:21:09;25.58;;;24.08;;
33644;SDS011;19986;48.190;16.366;2022-07-01T00:23:35;26.05;;;24.23;;
33644;SDS011;19986;48.190;16.366;2022-07-01T00:26:01;25.27;;;23.55;;
33644;SDS011;19986;48.190;16.366;2022-07-01T00:28:27;25.02;;;23.40;;
33644;SDS011;19986;48.190;16.366;2022-07-01T00:30:53;25.00;;;23.48;;
33644;SDS011;19986;48.190;16.366;2022-07-01T00:33:19;25.17;;;23.35;;
33644;SDS011;19986;48.190;16.366;2022-07-01T00:35:45;24.80;;;23.08;;
33644;SDS011;19986;48.190;16.366;2022-07-01T00:38:11;23.17;;;21.70;;
33644;SDS011;19986;48.190;16.366;2022-07-01T00:40:37;25.73;;;23.77;;
33644;SDS011;19986;48.190;16.366;2022-07-01T00:43:02;24.85;;;22.95;;
33644;SDS011;19986;48.190;16.366;2022-07-01T00:45:30;25.63;;;23.73;;
33644;SDS011;19986;48.190;16.366;2022-07-01T00:47:56;26.40;;;24.35;;
33644;SDS011;19986;48.190;16.366;2022-07-01T00:50:22;24.70;;;23.20;;
33644;SDS011;19986;48.190;16.366;2022-07-01T00:52:48;25.92;;;24.33;;
33644;SDS011;19986;48.190;16.366;2022-07-01T00:55:15;26.27;;;24.58;;
33644;SDS011;19986;48.190;16.366;2022-07-01T00:57:41;26.38;;;24.83;;
33644;SDS011;19986;48.190;16.366;2022-07-01T01:00:09;25.52;;;23.90;;
33644;SDS011;19986;48.190;16.366;2022-07-01T01:02:44;25.50;;;23.83;;
33644;SDS011;19986;48.190;16.366;2022-07-01T01:05:10;26.02;;;24.33;;
33644;SDS011;19986;48.190;16.366;2022-07-01T01:07:37;26.08;;;24.23;;
33644;SDS011;19986;48.190;16.366;2022-07-01T01:10:05;24.90;;;23.40;;
33644;SDS011;19986;48.190;16.366;2022-07-01T01:12:31;25.73;;;24.02;;
33644;SDS011;19986;48.190;16.366;2022-07-01T01:14:58;25.77;;;24.17;;
33644;SDS011;19986;48.190;16.366;2022-07-01T01:17:24;25.48;;;23.90;;
33644;SDS011;19986;48.190;16.366;2022-07-01T01:19:51;23.70;;;22.17;;
33644;SDS011;19986;48.190;16.366;2022-07-01T01:22:18;24.92;;;23.42;;
33644;SDS011;19986;48.190;16.366;2022-07-01T01:24:45;25.77;;;24.08;;
33644;SDS011;19986;48.190;16.366;2022-07-01T01:27:15;26.30;;;24.52;;
33644;SDS011;19986;48.190;16.366;2022-07-01T01:29:44;26.98;;;25.38;;
33644;SDS011;19986;48.190;16.366;2022-07-01T01:32:10;25.80;;;24.10;;
33644;SDS011;19986;48.190;16.366;2022-07-01T01:34:36;25.08;;;23.58;;
33644;SDS011;19986;48.190;16.366;2022-07-01T01:37:05;25.25;;;23.73;;
33644;SDS011;19986;48.190;16.366;2022-07-01T01:39:32;24.30;;;22.90;;
33644;SDS011;19986;48.190;16.366;2022-07-01T01:41:59;25.80;;;24.15;;
33644;SDS011;19986;48.190;16.366;2022-07-01T01:44:26;23.50;;;22.00;;
33644;SDS011;19986;48.190;16.366;2022-07-01T01:46:52;25.60;;;23.60;;
33644;SDS011;19986;48.190;16.366;2022-07-01T01:49:19;24.27;;;22.65;;
33644;SDS011;19986;48.190;16.366;2022-07-01T01:51:45;25.77;;;23.77;;
33644;SDS011;19986;48.190;16.366;2022-07-01T01:54:12;25.73;;;24.00;;
33644;SDS011;19986;48.190;16.366;2022-07-01T01:56:38;25.35;;;23.73;;
33644;SDS011;19986;48.190;16.366;2022-07-01T01:59:03;26.20;;;24.40;;
33644;SDS011;19986;48.190;16.366;2022-07-01T02:01:30;25.95;;;24.10;;
33644;SDS011;19986;48.190;16.366;2022-07-01T02:03:56;25.33;;;23.67;;
33644;SDS011;19986;48.190;16.366;2022-07-01T02:06:24;25.67;;;24.17;;
33644;SDS011;19986;48.190;16.366;2022-07-01T02:08:51;27.00;;;25.17;;
33644;SDS011;19986;48.190;16.366;2022-07-01T02:11:18;25.92;;;24.13;;
33644;SDS011;19986;48.190;16.366;2022-07-01T02:13:44;25.48;;;23.77;;
33644;SDS011;19986;48.190;16.366;2022-07-01T02:16:11;24.83;;;22.88;;
33644;SDS011;19986;48.190;16.366;2022-07-01T02:18:38;24.75;;;23.33;;
33644;SDS011;19986;48.190;16.366;2022-07-01T02:21:05;24.08;;;22.58;;
33644;SDS011;19986;48.190;16.366;2022-07-01T02:23:31;24.70;;;23.00;;
33644;SDS011;19986;48.190;16.366;2022-07-01T02:25:58;24.77;;;23.13;;
33644;SDS011;19986;48.190;16.366;2022-07-01T02:28:25;25.38;;;23.77;;
33644;SDS011;19986;48.190;16.366;2022-07-01T02:30:51;24.40;;;23.00;;
33644;SDS011;19986;48.190;16.366;2022-07-01T02:33:18;23.42;;;22.02;;
33644;SDS011;19986;48.190;16.366;2022-07-01T02:35:44;24.15;;;22.55;;
33644;SDS011;19986;48.190;16.366;2022-07-01T02:38:11;23.52;;;21.90;;
33644;SDS011;19986;48.190;16.366;2022-07-01T02:40:37;23.88;;;22.48;;
33644;SDS011;19986;48.190;16.366;2022-07-01T02:43:06;23.92;;;22.42;;
33644;SDS011;19986;48.190;16.366;2022-07-01T02:45:33;23.13;;;21.52;;
33644;SDS011;19986;48.190;16.366;2022-07-01T02:47:59;24.27;;;22.55;;
33644;SDS011;19986;48.190;16.366;2022-07-01T02:50:27;23.40;;;21.88;;
33644;SDS011;19986;48.190;16.366;2022-07-01T02:52:53;23.75;;;22.23;;
33644;SDS011;19986;48.190;16.366;2022-07-01T02:55:22;24.38;;;22.73;;
33644;SDS011;19986;48.190;16.366;2022-07-01T02:57:48;24.52;;;23.00;;
33644;SDS011;19986;48.190;16.366;2022-07-01T03:00:17;23.10;;;21.63;;
33644;SDS011;19986;48.190;16.366;2022-07-01T03:02:44;24.27;;;22.65;;
33644;SDS011;19986;48.190;16.366;2022-07-01T03:05:10;23.88;;;22.35;;
33644;SDS011;19986;48.190;16.366;2022-07-01T03:07:36;23.33;;;21.95;;
33644;SDS011;19986;48.190;16.366;2022-07-01T03:10:03;22.75;;;21.50;;
33644;SDS011;19986;48.190;16.366;2022-07-01T03:12:30;22.13;;;20.80;;
33644;SDS011;19986;48.190;16.366;2022-07-01T03:17:29;23.95;;;22.42;;
33644;SDS011;19986;48.190;16.366;2022-07-01T03:19:56;23.30;;;21.70;;
33644;SDS011;19986;48.190;16.366;2022-07-01T03:22:23;22.08;;;20.65;;
33644;SDS011;19986;48.190;16.366;2022-07-01T03:24:50;22.20;;;20.90;;
33644;SDS011;19986;48.190;16.366;2022-07-01T03:27:17;21.23;;;19.88;;
33644;SDS011;19986;48.190;16.366;2022-07-01T03:29:44;23.02;;;21.50;;
33644;SDS011;19986;48.190;16.366;2022-07-01T03:32:10;22.33;;;21.02;;
33644;SDS011;19986;48.190;16.366;2022-07-01T03:34:37;22.58;;;21.13;;
33644;SDS011;19986;48.190;16.366;2022-07-01T03:37:05;23.33;;;21.63;;
33644;SDS011;19986;48.190;16.366;2022-07-01T03:39:32;23.27;;;21.77;;
33644;SDS011;19986;48.190;16.366;2022-07-01T03:41:59;23.20;;;21.70;;
33644;SDS011;19986;48.190;16.366;2022-07-01T03:44:25;21.90;;;20.48;;
33644;SDS011;19986;48.190;16.366;2022-07-01T03:46:51;22.80;;;21.30;;
33644;SDS011;19986;48.190;16.366;2022-07-01T03:49:17;21.38;;;20.05;;
33644;SDS011;19986;48.190;16.366;2022-07-01T03:51:43;21.75;;;20.33;;
33644;SDS011;19986;48.190;16.366;2022-07-01T03:54:09;22.98;;;21.25;;
33644;SDS011;19986;48.190;16.366;2022-07-01T03:56:53;22.52;;;20.92;;
33644;SDS011;19986;48.190;16.366;2022-07-01T03:59:19;20.73;;;19.23;;
33644;SDS011;19986;48.190;16.366;2022-07-01T04:01:45;21.55;;;20.35;;
33644;SDS011;19986;48.190;16.366;2022-07-01T04:04:11;21.60;;;20.40;;
33644;SDS011;19986;48.190;16.366;2022-07-01T04:06:36;22.02;;;20.45;;
33644;SDS011;19986;48.190;16.366;2022-07-01T04:09:03;21.55;;;20.30;;
33644;SDS011;19986;48.190;16.366;2022-07-01T04:11:29;24.10;;;22.35;;
33644;SDS011;19986;48.190;16.366;2022-07-01T04:13:56;21.75;;;20.42;;
33644;SDS011;19986;48.190;16.366;2022-07-01T04:16:22;22.60;;;21.20;;
33644;SDS011;19986;48.190;16.366;2022-07-01T04:18:49;21.95;;;20.42;;
33644;SDS011;19986;48.190;16.366;2022-07-01T04:21:15;22.92;;;20.98;;
33644;SDS011;19986;48.190;16.366;2022-07-01T04:23:59;21.02;;;19.73;;
33644;SDS011;19986;48.190;16.366;2022-07-01T04:26:25;21.60;;;20.10;;
33644;SDS011;19986;48.190;16.366;2022-07-01T04:28:52;22.02;;;20.42;;
33644;SDS011;19986;48.190;16.366;2022-07-01T04:31:20;21.38;;;20.00;;
33644;SDS011;19986;48.190;16.366;2022-07-01T04:33:46;21.95;;;20.48;;
33644;SDS011;19986;48.190;16.366;2022-07-01T04:36:13;21.65;;;20.35;;
33644;SDS011;19986;48.190;16.366;2022-07-01T04:38:40;21.23;;;19.90;;
33644;SDS011;19986;48.190;16.366;2022-07-01T04:41:06;22.75;;;21.38;;
33644;SDS011;19986;48.190;16.366;2022-07-01T04:43:50;21.45;;;19.95;;
33644;SDS011;19986;48.190;16.366;2022-07-01T04:46:17;22.90;;;21.33;;
33644;SDS011;19986;48.190;16.366;2022-07-01T04:48:44;33.25;;;20.08;;
33644;SDS011;19986;48.190;16.366;2022-07-01T04:51:10;20.58;;;19.27;;
33644;SDS011;19986;48.190;16.366;2022-07-01T04:53:35;21.40;;;19.65;;
33644;SDS011;19986;48.190;16.366;2022-07-01T04:56:01;21.42;;;20.13;;
33644;SDS011;19986;48.190;16.366;2022-07-01T04:58:27;20.50;;;19.20;;
33644;SDS011;19986;48.190;16.366;2022-07-01T05:00:54;21.73;;;20.33;;
33644;SDS011;19986;48.190;16.366;2022-07-01T05:03:20;20.52;;;19.27;;
33644;SDS011;19986;48.190;16.366;2022-07-01T05:05:46;20.77;;;19.35;;
33644;SDS011;19986;48.190;16.366;2022-07-01T05:08:11;20.33;;;18.75;;
33644;SDS011;19986;48.190;16.366;2022-07-01T05:10:37;21.92;;;19.85;;
33644;SDS011;19986;48.190;16.366;2022-07-01T05:13:03;20.50;;;19.25;;
33644;SDS011;19986;48.190;16.366;2022-07-01T05:15:30;20.25;;;18.73;;
33644;SDS011;19986;48.190;16.366;2022-07-01T05:17:56;19.67;;;18.42;;
33644;SDS011;19986;48.190;16.366;2022-07-01T05:20:40;19.33;;;17.85;;
33644;SDS011;19986;48.190;16.366;2022-07-01T05:23:24;20.95;;;19.50;;
33644;SDS011;19986;48.190;16.366;2022-07-01T05:25:50;18.50;;;17.55;;
33644;SDS011;19986;48.190;16.366;2022-07-01T05:28:16;18.38;;;17.02;;
33644;SDS011;19986;48.190;16.366;2022-07-01T05:30:42;19.25;;;17.25;;
33644;SDS011;19986;48.190;16.366;2022-07-01T05:33:08;18.15;;;16.33;;
33644;SDS011;19986;48.190;16.366;2022-07-01T05:35:34;20.27;;;16.77;;
33644;SDS011;19986;48.190;16.366;2022-07-01T05:38:00;17.52;;;16.30;;
33644;SDS011;19986;48.190;16.366;2022-07-01T05:40:25;17.25;;;16.17;;
33644;SDS011;19986;48.190;16.366;2022-07-01T05:42:52;17.25;;;15.82;;
33644;SDS011;19986;48.190;16.366;2022-07-01T05:45:18;17.23;;;15.98;;
33644;SDS011;19986;48.190;16.366;2022-07-01T05:47:44;18.38;;;16.58;;
33644;SDS011;19986;48.190;16.366;2022-07-01T05:50:10;17.45;;;16.42;;
33644;SDS011;19986;48.190;16.366;2022-07-01T05:52:35;17.00;;;16.20;;
33644;SDS011;19986;48.190;16.366;2022-07-01T05:55:01;18.40;;;17.15;;
33644;SDS011;19986;48.190;16.366;2022-07-01T05:57:28;17.92;;;16.83;;
33644;SDS011;19986;48.190;16.366;2022-07-01T05:59:54;17.90;;;16.48;;
33644;SDS011;19986;48.190;16.366;2022-07-01T06:02:20;19.23;;;17.92;;
33644;SDS011;19986;48.190;16.366;2022-07-01T06:04:45;17.70;;;16.65;;
33644;SDS011;19986;48.190;16.366;2022-07-01T06:07:11;19.23;;;17.13;;
33644;SDS011;19986;48.190;16.366;2022-07-01T06:09:38;17.27;;;16.10;;
33644;SDS011;19986;48.190;16.366;2022-07-01T06:12:04;17.85;;;16.85;;
33644;SDS011;19986;48.190;16.366;2022-07-01T06:14:31;17.48;;;16.13;;
33644;SDS011;19986;48.190;16.366;2022-07-01T06:16:57;17.95;;;16.63;;
33644;SDS011;19986;48.190;16.366;2022-07-01T06:19:23;17.13;;;16.17;;
33644;SDS011;19986;48.190;16.366;2022-07-01T06:21:49;18.38;;;17.27;;
33644;SDS011;19986;48.190;16.366;2022-07-01T06:24:15;19.10;;;17.48;;
33644;SDS011;19986;48.190;16.366;2022-07-01T06:26:41;19.02;;;17.65;;
33644;SDS011;19986;48.190;16.366;2022-07-01T06:29:07;17.90;;;16.75;;
33644;SDS011;19986;48.190;16.366;2022-07-01T06:31:33;18.85;;;17.65;;
33644;SDS011;19986;48.190;16.366;2022-07-01T06:34:01;18.05;;;16.85;;
33644;SDS011;19986;48.190;16.366;2022-07-01T06:36:27;18.98;;;17.75;;
33644;SDS011;19986;48.190;16.366;2022-07-01T06:38:53;19.35;;;17.92;;
33644;SDS011;19986;48.190;16.366;2022-07-01T06:41:19;20.45;;;18.98;;
33644;SDS011;19986;48.190;16.366;2022-07-01T06:43:54;18.20;;;16.73;;
33644;SDS011;19986;48.190;16.366;2022-07-01T06:46:20;19.27;;;18.00;;
33644;SDS011;19986;48.190;16.366;2022-07-01T06:48:47;19.00;;;17.85;;
33644;SDS011;19986;48.190;16.366;2022-07-01T06:51:13;18.85;;;17.42;;
33644;SDS011;19986;48.190;16.366;2022-07-01T06:53:41;19.90;;;18.80;;
33644;SDS011;19986;48.190;16.366;2022-07-01T06:56:10;24.20;;;22.50;;
33644;SDS011;19986;48.190;16.366;2022-07-01T06:58:37;20.15;;;18.98;;
33644;SDS011;19986;48.190;16.366;2022-07-01T07:01:03;19.48;;;18.35;;
33644;SDS011;19986;48.190;16.366;2022-07-01T07:03:30;19.73;;;18.52;;
33644;SDS011;19986;48.190;16.366;2022-07-01T07:05:57;19.52;;;18.27;;
33644;SDS011;19986;48.190;16.366;2022-07-01T07:08:29;20.02;;;18.70;;
33644;SDS011;19986;48.190;16.366;2022-07-01T07:10:55;20.58;;;19.10;;
33644;SDS011;19986;48.190;16.366;2022-07-01T07:13:22;19.70;;;18.20;;
33644;SDS011;19986;48.190;16.366;2022-07-01T07:15:48;20.33;;;19.02;;
33644;SDS011;19986;48.190;16.366;2022-07-01T07:18:14;20.08;;;18.90;;
33644;SDS011;19986;48.190;16.366;2022-07-01T07:20:40;20.83;;;19.23;;
33644;SDS011;19986;48.190;16.366;2022-07-01T07:23:06;19.70;;;18.38;;
33644;SDS011;19986;48.190;16.366;2022-07-01T07:25:32;20.75;;;19.35;;
33644;SDS011;19986;48.190;16.366;2022-07-01T07:27:58;19.02;;;17.90;;
33644;SDS011;19986;48.190;16.366;2022-07-01T07:30:24;19.58;;;18.10;;
33644;SDS011;19986;48.190;16.366;2022-07-01T07:32:50;19.98;;;18.42;;
33644;SDS011;19986;48.190;16.366;2022-07-01T07:35:16;19.45;;;18.25;;
33644;SDS011;19986;48.190;16.366;2022-07-01T07:37:42;20.92;;;19.42;;
33644;SDS011;19986;48.190;16.366;2022-07-01T07:40:09;19.85;;;18.50;;
33644;SDS011;19986;48.190;16.366;2022-07-01T07:42:37;21.02;;;19.30;;
33644;SDS011;19986;48.190;16.366;2022-07-01T07:45:03;22.00;;;20.52;;
33644;SDS011;19986;48.190;16.366;2022-07-01T07:47:32;21.85;;;20.13;;
33644;SDS011;19986;48.190;16.366;2022-07-01T07:50:00;20.40;;;18.77;;
33644;SDS011;19986;48.190;16.366;2022-07-01T07:52:27;21.70;;;19.83;;
33644;SDS011;19986;48.190;16.366;2022-07-01T07:54:53;21.92;;;20.25;;
33644;SDS011;19986;48.190;16.366;2022-07-01T07:57:21;21.33;;;19.92;;
33644;SDS011;19986;48.190;16.366;2022-07-01T07:59:47;19.88;;;18.48;;
33644;SDS011;19986;48.190;16.366;2022-07-01T08:02:13;20.35;;;19.02;;
33644;SDS011;19986;48.190;16.366;2022-07-01T08:04:39;20.40;;;18.73;;
33644;SDS011;19986;48.190;16.366;2022-07-01T08:07:05;18.70;;;17.30;;
33644;SDS011;19986;48.190;16.366;2022-07-01T08:09:31;20.95;;;19.33;;
33644;SDS011;19986;48.190;16.366;2022-07-01T08:12:00;19.88;;;18.55;;
33644;SDS011;19986;48.190;16.366;2022-07-01T08:14:27;21.77;;;20.38;;
33644;SDS011;19986;48.190;16.366;2022-07-01T08:16:52;20.95;;;19.65;;
33644;SDS011;19986;48.190;16.366;2022-07-01T08:19:19;19.98;;;18.70;;
33644;SDS011;19986;48.190;16.366;2022-07-01T08:21:45;20.92;;;19.52;;
33644;SDS011;19986;48.190;16.366;2022-07-01T08:24:10;20.48;;;19.05;;
33644;SDS011;19986;48.190;16.366;2022-07-01T08:26:36;19.70;;;18.35;;
33644;SDS011;19986;48.190;16.366;2022-07-01T08:29:03;19.55;;;18.17;;
33644;SDS011;19986;48.190;16.366;2022-07-01T08:31:30;19.85;;;18.35;;
33644;SDS011;19986;48.190;16.366;2022-07-01T08:33:56;19.88;;;18.58;;
33644;SDS011;19986;48.190;16.366;2022-07-01T08:36:23;22.90;;;21.17;;
33644;SDS011;19986;48.190;16.366;2022-07-01T08:38:49;19.75;;;18.38;;
33644;SDS011;19986;48.190;16.366;2022-07-01T08:41:17;19.70;;;17.95;;
33644;SDS011;19986;48.190;16.366;2022-07-01T08:43:45;19.27;;;18.08;;
33644;SDS011;19986;48.190;16.366;2022-07-01T08:46:11;19.15;;;17.98;;
33644;SDS011;19986;48.190;16.366;2022-07-01T08:48:41;19.30;;;17.80;;
33644;SDS011;19986;48.190;16.366;2022-07-01T08:51:09;20.95;;;19.48;;
33644;SDS011;19986;48.190;16.366;2022-07-01T08:53:35;19.55;;;18.13;;
33644;SDS011;19986;48.190;16.366;2022-07-01T08:56:01;20.45;;;19.25;;
33644;SDS011;19986;48.190;16.366;2022-07-01T08:58:48;19.80;;;18.33;;
33644;SDS011;19986;48.190;16.366;2022-07-01T09:01:20;20.05;;;18.75;;
33644;SDS011;19986;48.190;16.366;2022-07-01T09:03:48;20.10;;;18.55;;
33644;SDS011;19986;48.190;16.366;2022-07-01T09:06:20;19.75;;;18.17;;
33644;SDS011;19986;48.190;16.366;2022-07-01T09:08:47;19.85;;;18.50;;
33644;SDS011;19986;48.190;16.366;2022-07-01T09:11:14;19.35;;;18.05;;
33644;SDS011;19986;48.190;16.366;2022-07-01T09:13:42;20.08;;;18.67;;
33644;SDS011;19986;48.190;16.366;2022-07-01T09:16:13;20.10;;;18.45;;
33644;SDS011;19986;48.190;16.366;2022-07-01T09:18:59;19.77;;;18.48;;
33644;SDS011;19986;48.190;16.366;2022-07-01T09:21:28;20.85;;;19.10;;
33644;SDS011;19986;48.190;16.366;2022-07-01T09:23:55;19.20;;;17.83;;
33644;SDS011;19986;48.190;16.366;2022-07-01T09:26:22;20.23;;;18.85;;
33644;SDS011;19986;48.190;16.366;2022-07-01T09:28:52;19.77;;;18.42;;
33644;SDS011;19986;48.190;16.366;2022-07-01T09:31:19;19.52;;;17.98;;
33644;SDS011;19986;48.190;16.366;2022-07-01T09:33:45;20.70;;;19.40;;
33644;SDS011;19986;48.190;16.366;2022-07-01T09:36:28;20.13;;;18.83;;
33644;SDS011;19986;48.190;16.366;2022-07-01T09:38:54;20.67;;;19.38;;
33644;SDS011;19986;48.190;16.366;2022-07-01T09:41:22;20.50;;;18.65;;
33644;SDS011;19986;48.190;16.366;2022-07-01T09:43:50;20.00;;;18.65;;
33644;SDS011;19986;48.190;16.366;2022-07-01T09:46:16;20.42;;;18.60;;
33644;SDS011;19986;48.190;16.366;2022-07-01T09:48:43;18.70;;;17.60;;
33644;SDS011;19986;48.190;16.366;2022-07-01T09:51:13;19.60;;;18.25;;
33644;SDS011;19986;48.190;16.366;2022-07-01T09:53:41;20.42;;;19.23;;
33644;SDS011;19986;48.190;16.366;2022-07-01T09:56:26;19.75;;;18.55;;
33644;SDS011;19986;48.190;16.366;2022-07-01T09:58:52;20.05;;;18.65;;
33644;SDS011;19986;48.190;16.366;2022-07-01T10:01:20;20.05;;;18.88;;
33644;SDS011;19986;48.190;16.366;2022-07-01T10:03:48;20.23;;;18.92;;
33644;SDS011;19986;48.190;16.366;2022-07-01T10:12:16;20.80;;;19.30;;
33644;SDS011;19986;48.190;16.366;2022-07-01T10:15:09;20.52;;;19.13;;
33644;SDS011;19986;48.190;16.366;2022-07-01T10:17:49;20.10;;;18.85;;
33644;SDS011;19986;48.190;16.366;2022-07-01T10:20:27;19.95;;;18.60;;
33644;SDS011;19986;48.190;16.366;2022-07-01T10:23:06;20.45;;;19.13;;
33644;SDS011;19986;48.190;16.366;2022-07-01T10:25:34;19.80;;;18.70;;
33644;SDS011;19986;48.190;16.366;2022-07-01T10:28:13;19.58;;;18.30;;
33644;SDS011;19986;48.190;16.366;2022-07-01T10:30:58;19.35;;;18.17;;
33644;SDS011;19986;48.190;16.366;2022-07-01T10:36:03;20.73;;;18.83;;
33644;SDS011;19986;48.190;16.366;2022-07-01T10:38:33;19.92;;;18.63;;
33644;SDS011;19986;48.190;16.366;2022-07-01T10:40:59;19.38;;;18.27;;
33644;SDS011;19986;48.190;16.366;2022-07-01T10:43:43;20.52;;;19.13;;
33644;SDS011;19986;48.190;16.366;2022-07-01T10:46:33;19.70;;;18.50;;
33644;SDS011;19986;48.190;16.366;2022-07-01T10:49:08;19.60;;;18.40;;
33644;SDS011;19986;48.190;16.366;2022-07-01T10:57:20;19.33;;;18.23;;
33644;SDS011;19986;48.190;16.366;2022-07-01T10:59:53;19.13;;;17.85;;
33644;SDS011;19986;48.190;16.366;2022-07-01T11:02:38;20.92;;;19.52;;
33644;SDS011;19986;48.190;16.366;2022-07-01T11:05:06;20.10;;;18.80;;
33644;SDS011;19986;48.190;16.366;2022-07-01T11:07:37;20.02;;;18.67;;
33644;SDS011;19986;48.190;16.366;2022-07-01T11:10:07;20.60;;;19.10;;
33644;SDS011;19986;48.190;16.366;2022-07-01T11:12:34;18.80;;;17.60;;
33644;SDS011;19986;48.190;16.366;2022-07-01T11:15:00;19.88;;;18.58;;
33644;SDS011;19986;48.190;16.366;2022-07-01T11:17:33;19.40;;;18.30;;
33644;SDS011;19986;48.190;16.366;2022-07-01T11:20:00;20.10;;;18.52;;
33644;SDS011;19986;48.190;16.366;2022-07-01T11:22:28;18.23;;;16.95;;
33644;SDS011;19986;48.190;16.366;2022-07-01T11:24:57;20.55;;;19.02;;
33644;SDS011;19986;48.190;16.366;2022-07-01T11:27:26;19.20;;;18.15;;
33644;SDS011;19986;48.190;16.366;2022-07-01T11:29:54;19.40;;;18.20;;
33644;SDS011;19986;48.190;16.366;2022-07-01T11:32:28;20.08;;;18.70;;
33644;SDS011;19986;48.190;16.366;2022-07-01T11:34:55;19.10;;;17.90;;
33644;SDS011;19986;48.190;16.366;2022-07-01T11:37:21;19.80;;;18.38;;
33644;SDS011;19986;48.190;16.366;2022-07-01T11:40:10;19.73;;;17.98;;
33644;SDS011;19986;48.190;16.366;2022-07-01T11:42:38;19.70;;;18.45;;
33644;SDS011;19986;48.190;16.366;2022-07-01T11:45:05;19.58;;;18.30;;
33644;SDS011;19986;48.190;16.366;2022-07-01T11:47:31;18.60;;;17.50;;
33644;SDS011;19986;48.190;16.366;2022-07-01T11:49:57;18.65;;;17.45;;
33644;SDS011;19986;48.190;16.366;2022-07-01T11:52:30;19.08;;;17.65;;
33644;SDS011;19986;48.190;16.366;2022-07-01T11:54:57;19.17;;;17.77;;
33644;SDS011;19986;48.190;16.366;2022-07-01T11:57:24;18.48;;;17.35;;
33644;SDS011;19986;48.190;16.366;2022-07-01T11:59:53;19.08;;;17.70;;
33644;SDS011;19986;48.190;16.366;2022-07-01T12:02:20;18.90;;;17.77;;
33644;SDS011;19986;48.190;16.366;2022-07-01T12:04:48;18.98;;;17.45;;
33644;SDS011;19986;48.190;16.366;2022-07-01T12:07:16;18.88;;;17.50;;
33644;SDS011;19986;48.190;16.366;2022-07-01T12:09:46;17.98;;;17.02;;
33644;SDS011;19986;48.190;16.366;2022-07-01T12:12:17;19.13;;;17.83;;
33644;SDS011;19986;48.190;16.366;2022-07-01T12:14:57;18.73;;;17.58;;
33644;SDS011;19986;48.190;16.366;2022-07-01T12:17:24;18.70;;;17.73;;
33644;SDS011;19986;48.190;16.366;2022-07-01T12:19:57;19.15;;;18.08;;
33644;SDS011;19986;48.190;16.366;2022-07-01T12:22:24;18.10;;;17.00;;
33644;SDS011;19986;48.190;16.366;2022-07-01T12:25:08;18.70;;;17.60;;
33644;SDS011;19986;48.190;16.366;2022-07-01T12:27:36;18.60;;;17.48;;
33644;SDS011;19986;48.190;16.366;2022-07-01T12:30:04;19.67;;;18.27;;
33644;SDS011;19986;48.190;16.366;2022-07-01T12:32:34;20.10;;;18.80;;
33644;SDS011;19986;48.190;16.366;2022-07-01T12:35:07;19.05;;;17.75;;
33644;SDS011;19986;48.190;16.366;2022-07-01T12:37:53;20.35;;;18.95;;
33644;SDS011;19986;48.190;16.366;2022-07-01T12:40:22;18.38;;;17.17;;
33644;SDS011;19986;48.190;16.366;2022-07-01T12:42:49;19.80;;;18.42;;
33644;SDS011;19986;48.190;16.366;2022-07-01T12:45:16;19.42;;;18.23;;
33644;SDS011;19986;48.190;16.366;2022-07-01T12:47:51;19.75;;;18.45;;
33644;SDS011;19986;48.190;16.366;2022-07-01T12:55:31;20.00;;;18.60;;
33644;SDS011;19986;48.190;16.366;2022-07-01T12:58:06;19.90;;;18.73;;
33644;SDS011;19986;48.190;16.366;2022-07-01T13:00:37;19.80;;;18.42;;
33644;SDS011;19986;48.190;16.366;2022-07-01T13:03:05;19.90;;;18.70;;
33644;SDS011;19986;48.190;16.366;2022-07-01T13:05:32;20.55;;;19.05;;
33644;SDS011;19986;48.190;16.366;2022-07-01T13:08:01;20.08;;;18.70;;
33644;SDS011;19986;48.190;16.366;2022-07-01T13:10:28;20.17;;;18.92;;
33644;SDS011;19986;48.190;16.366;2022-07-01T13:12:54;20.63;;;19.23;;
33644;SDS011;19986;48.190;16.366;2022-07-01T13:15:20;19.85;;;18.55;;
33644;SDS011;19986;48.190;16.366;2022-07-01T13:17:47;20.70;;;19.40;;
33644;SDS011;19986;48.190;16.366;2022-07-01T13:20:13;20.60;;;19.30;;
33644;SDS011;19986;48.190;16.366;2022-07-01T13:22:40;20.15;;;19.05;;
33644;SDS011;19986;48.190;16.366;2022-07-01T13:25:07;20.33;;;19.15;;
33644;SDS011;19986;48.190;16.366;2022-07-01T13:27:34;20.67;;;19.38;;
33644;SDS011;19986;48.190;16.366;2022-07-01T13:30:00;21.27;;;19.80;;
33644;SDS011;19986;48.190;16.366;2022-07-01T13:32:28;22.10;;;20.50;;
33644;SDS011;19986;48.190;16.366;2022-07-01T13:34:54;20.80;;;19.35;;
33644;SDS011;19986;48.190;16.366;2022-07-01T13:37:20;21.13;;;19.83;;
33644;SDS011;19986;48.190;16.366;2022-07-01T13:39:46;19.77;;;18.65;;
33644;SDS011;19986;48.190;16.366;2022-07-01T13:42:12;20.02;;;18.83;;
33644;SDS011;19986;48.190;16.366;2022-07-01T13:44:38;21.10;;;19.75;;
33644;SDS011;19986;48.190;16.366;2022-07-01T13:47:05;19.02;;;17.75;;
33644;SDS011;19986;48.190;16.366;2022-07-01T13:49:35;22.15;;;20.63;;
33644;SDS011;19986;48.190;16.366;2022-07-01T13:52:01;20.02;;;18.67;;
33644;SDS011;19986;48.190;16.366;2022-07-01T13:54:27;20.05;;;18.55;;
33644;SDS011;19986;48.190;16.366;2022-07-01T13:56:53;20.10;;;18.70;;
33644;SDS011;19986;48.190;16.366;2022-07-01T13:59:22;20.30;;;18.75;;
33644;SDS011;19986;48.190;16.366;2022-07-01T14:01:48;21.17;;;19.67;;
33644;SDS011;19986;48.190;16.366;2022-07-01T14:04:14;19.95;;;18.70;;
33644;SDS011;19986;48.190;16.366;2022-07-01T14:06:40;21.02;;;19.60;;
33644;SDS011;19986;48.190;16.366;2022-07-01T14:09:09;19.67;;;18.48;;
33644;SDS011;19986;48.190;16.366;2022-07-01T14:11:50;20.42;;;18.90;;
33644;SDS011;19986;48.190;16.366;2022-07-01T14:14:17;21.40;;;19.88;;
33644;SDS011;19986;48.190;16.366;2022-07-01T14:16:43;21.05;;;19.17;;
33644;SDS011;19986;48.190;16.366;2022-07-01T14:19:10;21.15;;;19.65;;
33644;SDS011;19986;48.190;16.366;2022-07-01T14:21:36;20.45;;;19.25;;
33644;SDS011;19986;48.190;16.366;2022-07-01T14:24:03;21.50;;;20.08;;
33644;SDS011;19986;48.190;16.366;2022-07-01T14:26:30;21.58;;;20.13;;
33644;SDS011;19986;48.190;16.366;2022-07-01T14:28:56;21.88;;;20.52;;
33644;SDS011;19986;48.190;16.366;2022-07-01T14:31:22;20.80;;;19.40;;
33644;SDS011;19986;48.190;16.366;2022-07-01T14:33:48;21.85;;;20.33;;
33644;SDS011;19986;48.190;16.366;2022-07-01T14:36:14;20.10;;;18.90;;